createdAt,value
2023-05-17T00:00:03.374Z,3.00
2023-05-17T00:02:32.678Z,2.63
2023-05-17T00:05:01.761Z,2.80
2023-05-17T00:07:29.443Z,2.50
2023-05-17T00:09:57.342Z,2.50
2023-05-17T00:12:24.899Z,2.35
2023-05-17T00:14:53.495Z,2.90
2023-05-17T00:17:25.780Z,2.58
2023-05-17T00:19:53.529Z,2.63
2023-05-17T00:22:22.922Z,2.65
2023-05-17T00:24:50.561Z,2.45
2023-05-17T00:27:18.407Z,2.75
2023-05-17T00:29:46.003Z,2.60
2023-05-17T00:32:13.839Z,2.90
2023-05-17T00:34:41.516Z,2.72
2023-05-17T00:37:09.803Z,2.65
2023-05-17T00:39:38.746Z,3.05
2023-05-17T00:42:07.271Z,2.78
2023-05-17T00:44:34.981Z,2.58
2023-05-17T00:47:03.965Z,2.60
2023-05-17T00:49:34.562Z,2.90
2023-05-17T00:52:03.268Z,2.63
2023-05-17T00:54:32.314Z,2.80
2023-05-17T00:57:04.165Z,2.65
2023-05-17T00:59:35.285Z,2.33
2023-05-17T01:02:05.897Z,2.90
2023-05-17T01:04:38.927Z,2.70
2023-05-17T01:07:09.717Z,2.53
2023-05-17T01:09:39.112Z,2.97
2023-05-17T01:12:16.627Z,3.20
2023-05-17T01:14:52.338Z,2.60
2023-05-17T01:17:29.825Z,2.65
2023-05-17T01:20:07.442Z,2.67
2023-05-17T01:22:47.956Z,2.75
2023-05-17T01:25:30.301Z,2.60
2023-05-17T01:28:02.873Z,2.95
2023-05-17T01:30:32.965Z,2.70
2023-05-17T01:33:03.564Z,2.88
2023-05-17T01:35:31.659Z,3.10
2023-05-17T01:38:00.371Z,3.10
2023-05-17T01:43:32.806Z,3.10
2023-05-17T01:46:08.567Z,2.83
2023-05-17T01:48:40.906Z,2.88
2023-05-17T01:51:14.473Z,2.80
2023-05-17T01:53:49.004Z,2.60
2023-05-17T01:56:22.145Z,2.95
2023-05-17T01:58:53.995Z,3.00
2023-05-17T02:04:16.910Z,2.80
2023-05-17T02:06:44.793Z,3.20
2023-05-17T02:09:12.665Z,3.03
2023-05-17T02:11:40.325Z,3.20
2023-05-17T02:14:09.798Z,3.00
2023-05-17T02:21:16.319Z,3.05
2023-05-17T02:23:44.253Z,3.25
2023-05-17T02:26:12.082Z,3.10
2023-05-17T02:28:40.341Z,3.45
2023-05-17T02:31:11.810Z,3.00
2023-05-17T02:33:40.633Z,2.97
2023-05-17T02:36:08.693Z,3.35
2023-05-17T02:39:02.159Z,3.20
2023-05-17T02:41:32.593Z,3.20
2023-05-17T02:44:00.457Z,2.88
2023-05-17T02:46:29.798Z,3.25
2023-05-17T02:54:18.572Z,3.15
2023-05-17T02:56:46.891Z,3.20
2023-05-17T02:59:15.788Z,2.80
2023-05-17T03:01:45.011Z,3.22
2023-05-17T03:04:13.362Z,3.28
2023-05-17T03:06:41.706Z,3.42
2023-05-17T03:09:09.756Z,3.22
2023-05-17T03:11:39.816Z,3.42
2023-05-17T03:14:14.592Z,3.13
2023-05-17T03:16:42.584Z,3.40
2023-05-17T03:19:11.948Z,3.20
2023-05-17T03:21:41.339Z,3.60
2023-05-17T03:24:09.333Z,3.55
2023-05-17T03:26:39.213Z,3.47
2023-05-17T03:29:09.048Z,3.03
2023-05-17T03:31:38.690Z,2.97
2023-05-17T03:34:06.388Z,2.80
2023-05-17T03:36:36.447Z,3.20
2023-05-17T03:39:04.219Z,3.10
2023-05-17T03:41:32.162Z,2.88
2023-05-17T03:44:01.362Z,3.55
2023-05-17T03:46:29.215Z,3.30
2023-05-17T03:48:57.255Z,3.38
2023-05-17T03:51:25.940Z,3.08
2023-05-17T03:54:02.841Z,3.47
2023-05-17T03:56:32.368Z,2.90
2023-05-17T03:59:00.146Z,3.00
2023-05-17T04:01:28.836Z,3.20
2023-05-17T04:03:56.515Z,3.40
2023-05-17T04:06:25.583Z,3.42
2023-05-17T04:08:55.733Z,3.17
2023-05-17T04:11:26.518Z,3.10
2023-05-17T04:13:54.716Z,3.90
2023-05-17T04:16:24.192Z,4.07
2023-05-17T04:18:54.168Z,3.35
2023-05-17T04:21:22.201Z,3.97
2023-05-17T04:23:52.790Z,4.00
2023-05-17T04:26:21.926Z,4.20
2023-05-17T04:28:50.584Z,3.42
2023-05-17T04:31:18.821Z,3.58
2023-05-17T04:33:50.857Z,3.78
2023-05-17T04:36:18.622Z,3.95
2023-05-17T04:38:46.399Z,3.60
2023-05-17T04:41:17.892Z,4.68
2023-05-17T04:43:49.857Z,3.83
2023-05-17T04:46:25.824Z,4.18
2023-05-17T04:48:56.276Z,4.00
2023-05-17T04:51:25.249Z,3.80
2023-05-17T04:53:54.809Z,4.75
2023-05-17T04:56:22.673Z,4.35
2023-05-17T05:01:43.984Z,4.03
2023-05-17T05:04:12.612Z,4.68
2023-05-17T05:06:43.507Z,4.43
2023-05-17T05:09:11.440Z,4.68
2023-05-17T05:11:40.838Z,4.20
2023-05-17T05:14:11.082Z,4.40
2023-05-17T05:16:42.782Z,4.60
2023-05-17T05:19:10.674Z,4.68
2023-05-17T05:21:42.810Z,4.78
2023-05-17T05:24:36.806Z,4.75
2023-05-17T05:27:08.955Z,4.78
2023-05-17T05:29:39.780Z,4.90
2023-05-17T05:32:09.806Z,4.07
2023-05-17T05:34:43.869Z,4.25
2023-05-17T05:37:14.433Z,3.78
2023-05-17T05:39:43.374Z,4.60
2023-05-17T05:42:11.595Z,4.00
2023-05-17T05:44:41.412Z,3.28
2023-05-17T05:47:10.222Z,3.45
2023-05-17T05:49:37.866Z,3.55
2023-05-17T05:52:05.811Z,3.50
2023-05-17T05:54:58.933Z,3.45
2023-05-17T05:57:28.806Z,3.33
2023-05-17T06:00:00.797Z,3.42
2023-05-17T06:02:41.204Z,3.70
2023-05-17T06:05:09.793Z,3.70
2023-05-17T06:07:38.217Z,3.08
2023-05-17T06:10:06.707Z,3.40
2023-05-17T06:12:36.796Z,4.07
2023-05-17T06:15:07.744Z,3.33
2023-05-17T06:17:35.442Z,3.90
2023-05-17T06:20:03.425Z,3.00
2023-05-17T06:22:31.001Z,2.97
2023-05-17T06:24:59.081Z,3.58
2023-05-17T06:27:26.726Z,3.47
2023-05-17T06:29:55.192Z,2.88
2023-05-17T06:32:25.949Z,2.75
2023-05-17T06:34:53.665Z,3.75
2023-05-17T06:37:21.810Z,3.10
2023-05-17T06:39:55.390Z,2.75
2023-05-17T06:42:27.398Z,2.72
2023-05-17T06:44:55.024Z,3.10
2023-05-17T06:47:23.831Z,2.30
2023-05-17T06:49:55.109Z,3.08
2023-05-17T06:52:23.727Z,2.50
2023-05-17T06:54:51.304Z,2.30
2023-05-17T06:57:20.523Z,2.53
2023-05-17T06:59:48.334Z,2.75
2023-05-17T07:02:15.975Z,2.22
2023-05-17T07:04:43.947Z,2.55
2023-05-17T07:07:13.120Z,2.35
2023-05-17T07:15:00.833Z,2.10
2023-05-17T07:17:28.942Z,2.10
2023-05-17T07:19:57.470Z,1.98
2023-05-17T07:22:26.742Z,2.05
2023-05-17T07:24:54.789Z,1.70
2023-05-17T07:27:22.461Z,1.90
2023-05-17T07:29:52.301Z,2.10
2023-05-17T07:32:20.024Z,2.17
2023-05-17T07:34:47.661Z,1.95
2023-05-17T07:37:16.816Z,2.17
2023-05-17T07:39:45.952Z,2.00
2023-05-17T07:42:13.824Z,2.00
2023-05-17T07:44:41.413Z,2.10
2023-05-17T07:47:09.246Z,1.90
2023-05-17T07:49:39.048Z,1.95
2023-05-17T07:52:06.892Z,1.75
2023-05-17T07:54:35.818Z,2.03
2023-05-17T07:57:07.189Z,1.65
2023-05-17T07:59:35.812Z,1.80
2023-05-17T08:02:03.584Z,2.10
2023-05-17T08:04:31.308Z,1.92
2023-05-17T08:07:00.861Z,1.80
2023-05-17T08:09:28.816Z,1.80
2023-05-17T08:11:57.416Z,1.80
2023-05-17T08:14:27.117Z,2.20
2023-05-17T08:16:56.815Z,2.20
2023-05-17T08:19:30.118Z,1.88
2023-05-17T08:21:58.768Z,2.05
2023-05-17T08:24:26.392Z,1.73
2023-05-17T08:29:51.868Z,1.60
2023-05-17T08:33:09.888Z,1.80
2023-05-17T08:35:41.806Z,1.70
2023-05-17T08:38:09.487Z,1.42
2023-05-17T08:43:31.923Z,1.70
2023-05-17T08:46:04.122Z,1.83
2023-05-17T08:48:59.889Z,2.05
2023-05-17T08:51:29.921Z,1.85
2023-05-17T08:53:57.981Z,1.70
2023-05-17T08:56:27.797Z,1.50
2023-05-17T08:58:58.188Z,1.45
2023-05-17T09:01:29.909Z,1.65
2023-05-17T09:04:01.275Z,2.00
2023-05-17T09:06:31.842Z,1.58
2023-05-17T09:09:01.749Z,1.95
2023-05-17T09:11:31.853Z,1.85
2023-05-17T09:14:00.824Z,1.90
2023-05-17T09:16:58.386Z,1.50
2023-05-17T09:19:26.168Z,1.58
2023-05-17T09:21:55.098Z,1.60
2023-05-17T09:24:31.833Z,1.90
2023-05-17T09:27:05.666Z,1.75
2023-05-17T09:29:33.987Z,1.92
2023-05-17T09:32:15.512Z,1.85
2023-05-17T09:34:44.287Z,2.00
2023-05-17T09:37:18.079Z,1.85
2023-05-17T09:39:47.994Z,2.03
2023-05-17T09:42:17.640Z,1.90
2023-05-17T09:44:50.921Z,1.73
2023-05-17T09:47:25.888Z,1.60
2023-05-17T09:49:54.192Z,1.70
2023-05-17T09:52:22.353Z,1.63
2023-05-17T09:54:54.827Z,1.77
2023-05-17T09:57:22.793Z,1.92
2023-05-17T09:59:51.404Z,1.83
2023-05-17T10:02:23.152Z,1.60
2023-05-17T10:04:54.057Z,1.67
2023-05-17T10:07:22.745Z,2.05
2023-05-17T10:09:52.086Z,2.15
2023-05-17T10:12:25.419Z,2.00
2023-05-17T10:14:56.951Z,1.90
2023-05-17T10:17:26.590Z,1.93
2023-05-17T10:19:57.074Z,1.75
2023-05-17T10:22:24.805Z,2.30
2023-05-17T10:24:52.949Z,1.83
2023-05-17T10:27:21.881Z,1.95
2023-05-17T10:29:55.339Z,1.77
2023-05-17T10:32:29.989Z,1.80
2023-05-17T10:35:11.402Z,1.90
2023-05-17T10:37:42.072Z,1.63
2023-05-17T10:40:13.505Z,2.22
2023-05-17T10:42:43.353Z,2.10
2023-05-17T10:45:13.085Z,1.90
2023-05-17T10:47:42.423Z,1.95
2023-05-17T10:50:14.757Z,2.10
2023-05-17T10:52:48.845Z,1.80
2023-05-17T10:55:22.481Z,1.73
2023-05-17T10:58:16.492Z,1.92
2023-05-17T11:00:47.043Z,1.92
2023-05-17T11:03:17.284Z,1.88
2023-05-17T11:06:22.519Z,2.25
2023-05-17T11:09:14.782Z,2.33
2023-05-17T11:12:09.710Z,1.65
2023-05-17T11:14:54.283Z,2.20
2023-05-17T11:17:27.381Z,2.03
2023-05-17T11:20:03.299Z,1.80
2023-05-17T11:22:39.170Z,1.83
2023-05-17T11:25:09.901Z,1.90
2023-05-17T11:28:07.640Z,2.10
2023-05-17T11:30:35.492Z,1.85
2023-05-17T11:33:07.187Z,1.98
2023-05-17T11:35:42.075Z,2.00
2023-05-17T11:38:19.822Z,1.85
2023-05-17T11:40:51.814Z,1.83
2023-05-17T11:45:53.131Z,2.00
2023-05-17T11:48:22.946Z,1.90
2023-05-17T11:50:52.497Z,1.67
2023-05-17T11:53:28.841Z,2.25
2023-05-17T11:56:01.036Z,2.10
2023-05-17T11:58:32.878Z,2.25
2023-05-17T12:03:29.925Z,2.00
2023-05-17T12:06:05.218Z,1.98
2023-05-17T12:11:27.782Z,2.00
2023-05-17T12:13:56.377Z,2.20
2023-05-17T12:16:25.732Z,2.45
2023-05-17T12:18:53.735Z,2.00
2023-05-17T12:21:22.231Z,1.60
2023-05-17T12:23:53.426Z,1.92
2023-05-17T12:26:22.923Z,2.10
2023-05-17T12:28:54.942Z,2.08
2023-05-17T12:31:29.161Z,2.42
2023-05-17T12:33:59.268Z,2.20
2023-05-17T12:36:29.644Z,2.10
2023-05-17T12:39:00.861Z,2.00
2023-05-17T12:44:13.893Z,2.13
2023-05-17T12:46:43.727Z,2.35
2023-05-17T12:49:12.718Z,1.90
2023-05-17T12:51:44.813Z,2.13
2023-05-17T12:54:15.927Z,1.90
2023-05-17T12:56:44.511Z,2.20
2023-05-17T12:59:13.947Z,2.63
2023-05-17T13:01:45.467Z,2.08
2023-05-17T13:04:14.320Z,2.17
2023-05-17T13:06:46.701Z,1.95
2023-05-17T13:09:16.497Z,2.00
2023-05-17T13:11:44.812Z,2.40
2023-05-17T13:14:13.448Z,2.38
2023-05-17T13:16:42.999Z,2.28
2023-05-17T13:19:14.681Z,2.50
2023-05-17T13:21:45.877Z,2.13
2023-05-17T13:24:13.508Z,2.50
2023-05-17T13:26:42.999Z,2.10
2023-05-17T13:29:10.977Z,2.00
2023-05-17T13:31:38.823Z,2.30
2023-05-17T13:34:06.781Z,2.28
2023-05-17T13:36:34.507Z,2.30
2023-05-17T13:39:02.822Z,2.35
2023-05-17T13:41:32.333Z,2.40
2023-05-17T13:44:01.912Z,2.22
2023-05-17T13:46:29.685Z,2.35
2023-05-17T13:48:57.501Z,2.53
2023-05-17T13:51:27.735Z,2.45
2023-05-17T13:53:55.848Z,1.95
2023-05-17T13:56:23.843Z,2.33
2023-05-17T13:58:51.707Z,2.15
2023-05-17T14:01:21.184Z,2.33
2023-05-17T14:03:49.864Z,2.20
2023-05-17T14:06:18.708Z,1.88
2023-05-17T14:08:48.308Z,2.08
2023-05-17T14:11:16.097Z,2.28
2023-05-17T14:13:43.963Z,1.80
2023-05-17T14:16:13.357Z,2.03
2023-05-17T14:18:42.976Z,2.10
2023-05-17T14:21:11.919Z,2.30
2023-05-17T14:23:40.216Z,2.10
2023-05-17T14:26:09.216Z,2.47
2023-05-17T14:28:38.279Z,2.05
2023-05-17T14:31:07.330Z,2.50
2023-05-17T14:33:35.363Z,2.05
2023-05-17T14:36:06.107Z,1.73
2023-05-17T14:38:34.664Z,2.05
2023-05-17T14:41:03.139Z,1.98
2023-05-17T14:43:31.037Z,2.08
2023-05-17T14:45:58.845Z,2.03
2023-05-17T14:48:26.668Z,1.70
2023-05-17T14:50:54.850Z,1.95
2023-05-17T14:53:29.002Z,2.05
2023-05-17T14:55:58.846Z,2.25
2023-05-17T14:58:26.512Z,1.73
2023-05-17T15:01:06.201Z,2.03
2023-05-17T15:03:35.861Z,2.13
2023-05-17T15:06:07.517Z,2.10
2023-05-17T15:08:40.839Z,1.98
2023-05-17T15:11:10.669Z,2.08
2023-05-17T15:14:05.840Z,2.25
2023-05-17T15:16:34.281Z,2.00
2023-05-17T15:19:03.936Z,1.70
2023-05-17T15:21:31.994Z,2.20
2023-05-17T15:24:05.156Z,1.92
2023-05-17T15:26:33.455Z,2.08
2023-05-17T15:29:01.057Z,2.10
2023-05-17T15:31:29.435Z,2.45
2023-05-17T15:33:57.550Z,2.10
2023-05-17T15:36:25.540Z,2.05
2023-05-17T15:38:53.284Z,1.98
2023-05-17T15:41:29.554Z,2.03
2023-05-17T15:43:58.399Z,1.88
2023-05-17T15:46:26.566Z,1.88
2023-05-17T15:48:56.260Z,1.80
2023-05-17T15:51:23.925Z,1.77
2023-05-17T15:53:52.358Z,1.50
2023-05-17T15:56:24.074Z,1.92
2023-05-17T15:58:53.135Z,1.85
2023-05-17T16:01:20.767Z,1.85
2023-05-17T16:03:50.884Z,2.00
2023-05-17T16:06:19.537Z,1.73
2023-05-17T16:08:47.184Z,2.10
2023-05-17T16:11:14.885Z,2.05
2023-05-17T16:13:43.924Z,1.88
2023-05-17T16:16:14.426Z,1.75
2023-05-17T16:18:42.129Z,2.03
2023-05-17T16:21:09.770Z,1.70
2023-05-17T16:23:38.269Z,1.83
2023-05-17T16:26:06.840Z,2.53
2023-05-17T16:28:36.761Z,2.50
2023-05-17T16:31:05.899Z,2.00
2023-05-17T16:33:35.423Z,1.98
2023-05-17T16:36:03.960Z,2.00
2023-05-17T16:38:31.753Z,1.67
2023-05-17T16:41:02.990Z,1.92
2023-05-17T16:43:30.874Z,1.87
2023-05-17T16:45:59.423Z,1.92
2023-05-17T16:48:27.334Z,1.80
2023-05-17T16:50:58.170Z,1.90
2023-05-17T16:53:28.995Z,1.90
2023-05-17T16:58:26.670Z,1.98
2023-05-17T17:00:54.347Z,2.10
2023-05-17T17:03:22.013Z,1.98
2023-05-17T17:05:50.346Z,2.10
2023-05-17T17:08:20.841Z,2.13
2023-05-17T17:10:49.390Z,1.70
2023-05-17T17:13:17.377Z,2.03
2023-05-17T17:15:45.461Z,2.00
2023-05-17T17:18:13.096Z,2.05
2023-05-17T17:20:40.966Z,1.92
2023-05-17T17:23:08.599Z,1.98
2023-05-17T17:25:37.850Z,1.70
2023-05-17T17:28:11.672Z,1.80
2023-05-17T17:33:09.452Z,1.75
2023-05-17T17:35:37.307Z,2.20
2023-05-17T17:38:04.909Z,1.75
2023-05-17T17:40:32.850Z,2.33
2023-05-17T17:43:01.969Z,2.03
2023-05-17T17:45:30.338Z,1.95
2023-05-17T17:47:58.040Z,1.98
2023-05-17T17:50:26.933Z,2.00
2023-05-17T17:52:54.567Z,1.70
2023-05-17T17:55:22.364Z,1.98
2023-05-17T17:57:51.742Z,1.90
2023-05-17T18:00:22.227Z,1.73
2023-05-17T18:02:50.451Z,1.67
2023-05-17T18:05:18.880Z,2.10
2023-05-17T18:07:46.530Z,2.08
2023-05-17T18:10:14.178Z,2.33
2023-05-17T18:12:41.802Z,2.13
2023-05-17T18:15:10.787Z,2.10
2023-05-17T18:17:42.173Z,1.83
2023-05-17T18:20:10.840Z,2.00
2023-05-17T18:22:40.050Z,1.73
2023-05-17T18:25:08.118Z,1.95
2023-05-17T18:27:36.703Z,2.13
2023-05-17T18:30:04.536Z,2.20
2023-05-17T18:32:32.509Z,2.15
2023-05-17T18:35:01.645Z,2.15
2023-05-17T18:37:30.364Z,2.20
2023-05-17T18:39:59.630Z,2.78
2023-05-17T18:42:27.316Z,2.10
2023-05-17T18:44:54.967Z,2.30
2023-05-17T18:47:23.337Z,2.22
2023-05-17T18:49:51.834Z,1.90
2023-05-17T18:52:20.779Z,2.33
2023-05-17T18:54:51.669Z,1.63
2023-05-17T18:57:21.251Z,1.70
2023-05-17T18:59:48.872Z,1.80
2023-05-17T19:02:16.467Z,1.88
2023-05-17T19:04:45.007Z,1.80
2023-05-17T19:07:12.687Z,1.60
2023-05-17T19:10:06.875Z,1.70
2023-05-17T19:12:36.166Z,1.92
2023-05-17T19:15:04.089Z,1.80
2023-05-17T19:17:31.886Z,1.92
2023-05-17T19:20:00.319Z,2.00
2023-05-17T19:22:27.985Z,1.77
2023-05-17T19:24:57.759Z,1.73
2023-05-17T19:27:27.470Z,2.03
2023-05-17T19:29:55.031Z,2.00
2023-05-17T19:32:22.949Z,2.00
2023-05-17T19:34:51.266Z,2.00
2023-05-17T19:37:18.957Z,2.20
2023-05-17T19:39:46.547Z,1.80
2023-05-17T19:42:15.466Z,2.75
2023-05-17T19:44:43.874Z,1.92
2023-05-17T19:47:11.457Z,2.20
2023-05-17T19:49:39.197Z,1.75
2023-05-17T19:52:13.871Z,2.15
2023-05-17T19:55:05.828Z,2.10
2023-05-17T19:57:34.914Z,2.25
2023-05-17T20:00:03.872Z,2.50
2023-05-17T20:02:32.061Z,2.20
2023-05-17T20:05:02.130Z,2.10
2023-05-17T20:07:29.954Z,2.22
2023-05-17T20:09:58.382Z,3.78
2023-05-17T20:12:26.530Z,4.68
2023-05-17T20:15:22.693Z,4.82
2023-05-17T20:17:50.563Z,3.53
2023-05-17T20:20:18.385Z,3.30
2023-05-17T20:22:46.667Z,2.80
2023-05-17T20:25:14.290Z,2.72
2023-05-17T20:27:42.871Z,2.65
2023-05-17T20:30:12.193Z,2.90
2023-05-17T20:32:41.634Z,2.58
2023-05-17T20:35:09.754Z,2.30
2023-05-17T20:38:02.826Z,3.08
2023-05-17T20:40:30.834Z,2.50
2023-05-17T20:42:58.834Z,2.00
2023-05-17T20:45:29.659Z,2.28
2023-05-17T20:47:58.739Z,2.10
2023-05-17T20:50:26.579Z,2.10
2023-05-17T20:52:54.170Z,2.13
2023-05-17T20:55:22.943Z,2.25
2023-05-17T20:57:52.248Z,2.00
2023-05-17T21:00:21.116Z,2.10
2023-05-17T21:02:48.874Z,2.25
2023-05-17T21:05:17.884Z,2.33
2023-05-17T21:07:46.556Z,2.28
2023-05-17T21:10:14.255Z,2.40
2023-05-17T21:12:41.885Z,2.33
2023-05-17T21:15:17.161Z,2.22
2023-05-17T21:17:49.291Z,2.35
2023-05-17T21:20:18.868Z,1.95
2023-05-17T21:22:46.472Z,2.22
2023-05-17T21:25:14.095Z,1.98
2023-05-17T21:27:42.388Z,1.90
2023-05-17T21:30:11.033Z,2.20
2023-05-17T21:32:38.892Z,2.42
2023-05-17T21:35:08.964Z,2.45
2023-05-17T21:37:40.007Z,2.05
2023-05-17T21:40:09.989Z,2.80
2023-05-17T21:42:37.696Z,2.45
2023-05-17T21:45:06.420Z,2.10
2023-05-17T21:47:35.849Z,2.50
2023-05-17T21:50:04.044Z,2.40
2023-05-17T21:52:32.073Z,2.35
2023-05-17T21:55:01.018Z,2.25
2023-05-17T21:57:28.631Z,2.25
2023-05-17T21:59:56.362Z,2.20
2023-05-17T22:02:24.452Z,2.38
2023-05-17T22:04:52.259Z,2.30
2023-05-17T22:07:19.943Z,2.35
2023-05-17T22:09:48.087Z,2.38
2023-05-17T22:12:25.239Z,2.55
2023-05-17T22:14:53.647Z,2.00
2023-05-17T22:17:35.231Z,2.10
2023-05-17T22:20:12.056Z,2.20
2023-05-17T22:22:39.778Z,2.10
2023-05-17T22:25:08.875Z,2.20
2023-05-17T22:27:37.965Z,2.20
2023-05-17T22:30:07.371Z,2.55
2023-05-17T22:32:35.054Z,2.33
2023-05-17T22:35:02.775Z,2.55
2023-05-17T22:37:32.813Z,2.85
2023-05-17T22:40:00.900Z,2.67
2023-05-17T22:42:28.581Z,2.40
2023-05-17T22:44:57.573Z,2.60
2023-05-17T22:47:26.564Z,2.28
2023-05-17T22:49:54.332Z,2.60
2023-05-17T22:52:22.081Z,2.72
2023-05-17T22:54:50.478Z,2.40
2023-05-17T22:57:18.184Z,2.40
2023-05-17T22:59:45.975Z,2.40
2023-05-17T23:02:14.917Z,2.25
2023-05-17T23:04:45.811Z,2.08
2023-05-17T23:07:14.899Z,2.20
2023-05-17T23:09:42.673Z,2.35
2023-05-17T23:12:14.174Z,2.10
2023-05-17T23:14:42.421Z,2.85
2023-05-17T23:17:10.353Z,2.20
2023-05-17T23:19:40.548Z,2.38
2023-05-17T23:22:08.393Z,2.20
2023-05-17T23:24:38.483Z,1.92
2023-05-17T23:27:09.626Z,2.42
2023-05-17T23:29:37.342Z,2.53
2023-05-17T23:32:05.288Z,2.60
2023-05-17T23:34:33.002Z,2.38
2023-05-17T23:37:02.176Z,2.55
2023-05-17T23:39:29.816Z,2.45
2023-05-17T23:41:59.016Z,2.30
2023-05-17T23:44:27.373Z,2.30
2023-05-17T23:46:56.131Z,2.60
2023-05-17T23:49:23.870Z,3.03
2023-05-17T23:51:51.992Z,2.53
2023-05-17T23:54:21.870Z,2.30
2023-05-17T23:56:49.703Z,2.33
2023-05-17T23:59:17.312Z,2.20
